• Join FlightAware (Why Join?)
  • Login
  • US Flag 
11:09PM EST


 

Airport Tracker/Info


-or-


 

Live Flight TrackerFlight Track Log ✈ EJA258 ✈ 03-Oct-2013 ✈ KCLT - KBDL

Flight Track Log - Related Links

Times and Time Zones

All times are in EDT time to prevent confusion due to time zone crossing. See the EJA258 flight status page for this flight to view local times or setup timezone preferences in your user account.

Time Position Orientation Groundspeed Altitude Reporting Facility
EDT Latitude Longitude Course Direction KTS MPH feet Rate Location/Type
03:37PM 35.1908 -80.9356 177° South 182 209 1,600  Level Atlanta Center
03:37PM 35.1658 -80.9342 177° South 194 223 2,900 2,640 Climbing Atlanta Center
03:38PM 35.1144 -80.8828 141° Southeast 259 298 5,700 2,460 Climbing Atlanta Center
03:39PM 35.1286 -80.7908 79° East 289 333 8,000 1,860 Climbing Atlanta Center
03:40PM 35.1328 -80.7856 46° Northeast 291 335 8,000 1,800 Level Atlanta Center
03:41PM 35.1722 -80.7000 61° Northeast 320 368 10,200 1,980 Climbing Atlanta Center
03:42PM 35.2194 -80.5989 60° Northeast 320 368 12,000 1,920 Climbing Atlanta Center
03:43PM 35.2667 -80.5003 60° Northeast 320 368 14,100 2,040 Climbing Atlanta Center
03:44PM 35.3158 -80.3964 60° Northeast 333 383 16,100 1,740 Climbing Atlanta Center
03:46PM 35.4239 -80.1647 60° Northeast 368 423 19,900 1,560 Climbing Washington Center
03:47PM 35.4578 -80.0417 71° East 378 435 21,300 1,440 Climbing Washington Center
03:48PM 35.4939 -79.9111 71° East 384 442 22,800 1,500 Climbing Washington Center
03:49PM 35.5278 -79.7750 73° East 394 453 24,400 1,500 Climbing Washington Center
03:50PM 35.5619 -79.6364 73° East 408 470 25,900 1,440 Climbing Washington Center
03:51PM 35.6000 -79.4978 71° East 423 487 27,400 1,380 Climbing Washington Center
03:52PM 35.6439 -79.3619 68° East 423 487 28,600 1,140 Climbing Washington Center
03:53PM 35.6981 -79.2264 64° Northeast 423 487 29,700 1,020 Climbing Washington Center
03:54PM 35.7567 -79.0833 63° Northeast 442 509 30,700 960 Climbing Washington Center
03:55PM 35.8128 -78.9422 64° Northeast 453 521 31,700 1,020 Climbing Washington Center
03:56PM 35.8733 -78.7911 64° Northeast 463 533 32,800 1,140 Climbing Washington Center
03:57PM 35.9417 -78.6528 59° Northeast 468 539 34,000 1,260 Climbing Washington Center
03:58PM 36.0119 -78.5092 59° Northeast 474 545 35,300 1,260 Climbing Washington Center
03:59PM 36.0800 -78.3675 59° Northeast 474 545 36,600 1,260 Climbing Washington Center
04:00PM 36.1481 -78.2261 59° Northeast 474 545 37,900 1,260 Climbing Washington Center
04:01PM 36.2136 -78.0892 59° Northeast 474 545 39,200 1,260 Climbing Washington Center
04:02PM 36.2789 -77.9469 60° Northeast 474 545 40,500 900 Climbing Washington Center
04:03PM 36.3464 -77.8072 59° Northeast 474 545 41,000 240 Climbing Washington Center
04:04PM 36.4156 -77.6619 59° Northeast 479 551 41,000  Level Washington Center
04:05PM 36.4786 -77.5164 62° Northeast 479 551 41,000  Level Washington Center
04:06PM 36.5497 -77.3681 59° Northeast 484 557 41,000  Level Washington Center
04:07PM 36.6208 -77.2172 60° Northeast 489 563 41,000  Level Washington Center
04:08PM 36.6894 -77.0658 60° Northeast 489 563 41,000  Level Washington Center
04:09PM 36.7847 -76.9456 45° Northeast 490 564 41,000  Level Washington Center
04:10PM 36.8944 -76.8436 37° Northeast 477 549 41,000  Level Washington Center
04:11PM 37.0206 -76.7339 35° Northeast 490 564 41,000  Level Washington Center
04:12PM 37.1322 -76.6314 36° Northeast 495 570 41,000  Level Washington Center
04:13PM 37.2433 -76.5311 36° Northeast 495 570 41,000  Level Washington Center
04:14PM 37.3547 -76.4306 36° Northeast 495 570 41,000  Level Washington Center
04:15PM 37.4661 -76.3272 36° Northeast 495 570 41,000  Level Washington Center
04:16PM 37.5772 -76.2258 36° Northeast 495 570 41,000  Level Washington Center
04:17PM 37.6797 -76.1403 33° Northeast 495 570 41,000  Level Washington Center
04:18PM 37.8011 -76.0203 38° Northeast 495 570 41,000  Level Washington Center
04:19PM 37.9100 -75.9181 37° Northeast 495 570 41,000  Level Washington Center
04:20PM 37.9978 -75.8342 37° Northeast 490 564 41,000  Level Washington Center
04:21PM 38.1231 -75.7236 35° Northeast 490 564 41,000  Level Washington Center
04:22PM 38.2356 -75.6261 34° Northeast 490 564 41,000  Level Washington Center
04:23PM 38.3628 -75.5203 33° Northeast 498 573 41,000  Level Washington Center
04:24PM 38.4733 -75.4194 36° Northeast 493 567 41,000  Level Washington Center
04:25PM 38.5856 -75.3233 34° Northeast 488 562 41,000  Level Washington Center
04:26PM 38.6981 -75.2272 34° Northeast 488 562 41,000  Level Washington Center
04:27PM 38.8081 -75.1256 36° Northeast 488 562 41,000  Level Washington Center
04:28PM 38.9181 -75.0286 34° Northeast 488 562 41,000  Level Washington Center
04:29PM 39.0322 -74.9289 34° Northeast 488 562 41,000  Level Washington Center
04:30PM 39.1442 -74.8261 35° Northeast 488 562 41,000 -120 Level Washington Center
04:31PM 39.2519 -74.7286 35° Northeast 488 562 40,800 -1,200 Descending Washington Center
04:32PM 39.3617 -74.6278 35° Northeast 488 562 38,700 -2,100 Descending Washington Center
04:33PM 39.4733 -74.5297 34° Northeast 488 562 36,700 -2,040 Descending Washington Center
04:35PM 39.6736 -74.3500 35° Northeast 540 621 33,000 -2,040 Descending New York Center
04:36PM 39.7872 -74.2450 35° Northeast 505 581 31,000 -2,100 Descending New York Center
04:37PM 39.9008 -74.1425 35° Northeast 500 575 28,900 -2,100 Descending New York Center
04:38PM 40.0100 -74.0392 36° Northeast 494 568 26,900 -1,980 Descending New York Center
04:39PM 40.1211 -73.9386 35° Northeast 487 560 25,000 -1,020 Descending New York Center
04:40PM 40.2258 -73.8375 36° Northeast 482 555 24,900 -660 Descending New York Center
04:42PM 40.4456 -73.6289 36° Northeast 488 562 23,100 -1,080 Descending Boston Center
04:43PM 40.5550 -73.5244 36° Northeast 488 562 21,800 -1,320 Descending Boston Center
04:44PM 40.6686 -73.4169 36° Northeast 488 562 20,500 -1,380 Descending Boston Center
04:45PM 40.7944 -73.3064 34° Northeast 488 562 19,000 -1,260 Descending Boston Center
04:46PM 40.8975 -73.1842 42° Northeast 488 562 18,000 -1,440 Descending Boston Center
04:47PM 40.9981 -73.0672 41° Northeast 483 556 16,300 -1,740 Descending Boston Center
04:48PM 41.0989 -72.9469 42° Northeast 483 556 14,600 -1,680 Descending Boston Center
04:49PM 41.1742 -72.8619 40° Northeast 467 537 13,300 -1,800 Descending Boston Center
04:49PM 41.1950 -72.8344 45° Northeast 478 550 12,800 -1,560 Descending Boston Center
04:50PM 41.2933 -72.7411 35° Northeast 446 513 11,400 -1,200 Descending Boston Center
04:50PM 41.3497 -72.7358 North 397 457 11,000 -420 Descending Boston Center
04:51PM 41.3850 -72.7611 332° Northwest 340 391 11,000  Level Boston Center
04:51PM 41.4078 -72.7722 340° North 349 402 11,000 -1,020 Level Boston Center
04:52PM 41.4831 -72.7586 North 311 358 10,000 -1,680 Descending Boston Center
04:53PM 41.5850 -72.7369 North 294 338 7,500 -2,100 Descending Boston Center
04:54PM 41.6561 -72.7208 10° North 274 315 5,600 -1,500 Descending Boston Center
04:55PM 41.7186 -72.6986 15° North 235 270 4,700 -1,080 Descending Boston Center
04:56PM 41.7750 -72.6628 25° Northeast 225 259 3,500 -1,080 Descending Boston Center
04:57PM 41.8272 -72.6433 16° North 192 221 2,700 -1,020 Descending Boston Center
04:58PM 41.8708 -72.6436 360° North 143 165 1,600 -960 Descending Boston Center
04:59PM 41.9125 -72.6606 343° North 136 157 700 -840 Descending Boston Center
05:01PM 41.9333 -72.6833 352° North  Level FlightAware Approximate
05:08PM 41.9392 -72.6834 352° North  Level Estimated
05:09PM 41.9333 -72.6833 352° North  Level FlightAware Approximate